Nearby METAR Reports


EGGW - Luton Airport, United Kingdom
Distance from station: ESE 6mi, 9km
Updated: Tue, 24-Apr-2018 8:50am BST
Clear
Clear
 Wind from WSW
Wind: WSW 13 mph , 20 km/h
Temperature: 11°C
Dew Point: 8°C
Humidity: 82%
Barometer: 1015 hPa
Clouds: Clear
Visibility: 6 miles , 10 km
2018/04/24 07:50 EGGW 240750Z AUTO 24011KT 9999 NCD 11/08 Q1015
EGTC - Cranfield, United Kingdom
Distance from station: NNW 13mi, 22km
Updated: Tue, 24-Apr-2018 8:50am BST
Few Clouds
Few Clouds
 Wind from WSW
Wind: WSW 12 mph , 19 km/h
Temperature: 11°C
Dew Point: 9°C
Humidity: 88%
Barometer: 1014 hPa
Clouds: Few Clouds
Visibility: 6 miles , 10 km
Cloud details: Few Clouds 396 m
2018/04/24 07:50 EGTC 240750Z 25010KT 9999 FEW013 11/09 Q1014

Metar display script from Saratoga-Weather.org

Powered by Cumulus v1.9.4 (1098)